createdAt,value
2023-06-10T00:00:33.892Z,16.44
2023-06-10T00:03:37.603Z,16.39
2023-06-10T00:06:40.704Z,16.30
2023-06-10T00:09:43.058Z,16.41
2023-06-10T00:12:45.493Z,16.42
2023-06-10T00:15:47.897Z,16.22
2023-06-10T00:18:52.287Z,16.25
2023-06-10T00:21:54.753Z,16.13
2023-06-10T00:25:00.373Z,15.96
2023-06-10T00:28:02.744Z,16.23
2023-06-10T00:31:06.148Z,16.18
2023-06-10T00:34:09.363Z,16.03
2023-06-10T00:37:11.780Z,16.07
2023-06-10T00:40:14.299Z,16.14
2023-06-10T00:43:16.704Z,15.99
2023-06-10T00:46:19.777Z,15.97
2023-06-10T00:49:22.402Z,16.11
2023-06-10T00:52:29.174Z,15.97
2023-06-10T00:55:33.815Z,16.01
2023-06-10T00:58:37.048Z,15.89
2023-06-10T01:01:41.095Z,15.95
2023-06-10T01:04:43.682Z,15.94
2023-06-10T01:08:29.982Z,15.93
2023-06-10T01:11:42.594Z,15.78
2023-06-10T01:14:46.337Z,15.99
2023-06-10T01:18:00.450Z,15.75
2023-06-10T01:21:03.289Z,15.59
2023-06-10T01:24:09.294Z,15.83
2023-06-10T01:27:16.995Z,15.81
2023-06-10T01:30:24.331Z,15.77
2023-06-10T01:33:30.644Z,15.72
2023-06-10T01:36:34.571Z,15.82
2023-06-10T01:39:37.683Z,15.84
2023-06-10T01:42:40.119Z,15.79
2023-06-10T01:45:42.631Z,15.94
2023-06-10T01:48:45.029Z,15.82
2023-06-10T01:51:47.407Z,15.74
2023-06-10T01:54:49.821Z,15.70
2023-06-10T01:57:53.012Z,15.83
2023-06-10T02:00:55.610Z,15.90
2023-06-10T02:03:58.105Z,15.89
2023-06-10T02:07:00.680Z,15.94
2023-06-10T02:10:03.146Z,16.04
2023-06-10T02:13:06.160Z,16.01
2023-06-10T02:16:08.852Z,15.87
2023-06-10T02:19:11.240Z,15.86
2023-06-10T02:22:14.006Z,15.94
2023-06-10T02:25:16.529Z,15.95
2023-06-10T02:28:19.134Z,16.00
2023-06-10T02:31:22.473Z,15.97
2023-06-10T02:34:24.969Z,16.22
2023-06-10T02:37:28.396Z,16.04
2023-06-10T02:40:31.794Z,15.97
2023-06-10T02:43:34.542Z,16.02
2023-06-10T02:46:37.109Z,16.15
2023-06-10T02:49:41.245Z,16.13
2023-06-10T02:52:45.703Z,16.28
2023-06-10T02:55:48.482Z,16.27
2023-06-10T02:58:53.647Z,16.18
2023-06-10T03:01:57.660Z,16.35
2023-06-10T03:05:02.120Z,16.36
2023-06-10T03:08:05.068Z,16.43
2023-06-10T03:11:09.948Z,16.47
2023-06-10T03:14:13.005Z,16.54
2023-06-10T03:17:15.494Z,16.55
2023-06-10T03:20:19.551Z,16.53
2023-06-10T03:23:23.149Z,16.46
2023-06-10T03:26:28.491Z,16.53
2023-06-10T03:29:31.690Z,16.70
2023-06-10T03:32:34.546Z,16.57
2023-06-10T03:35:37.328Z,16.74
2023-06-10T03:38:41.605Z,16.73
2023-06-10T03:41:44.508Z,16.89
2023-06-10T03:44:48.005Z,16.96
2023-06-10T03:47:50.527Z,16.97
2023-06-10T03:50:57.353Z,16.91
2023-06-10T03:53:59.976Z,16.99
2023-06-10T03:57:03.218Z,16.97
2023-06-10T04:00:13.447Z,16.99
2023-06-10T04:03:18.900Z,17.08
2023-06-10T04:06:26.681Z,17.06
2023-06-10T04:09:30.537Z,17.00
2023-06-10T04:12:33.284Z,17.17
2023-06-10T04:15:35.807Z,17.23
2023-06-10T04:18:45.539Z,17.45
2023-06-10T04:21:48.580Z,17.59
2023-06-10T04:24:51.124Z,17.44
2023-06-10T04:27:54.426Z,17.46
2023-06-10T04:30:56.970Z,17.49
2023-06-10T04:33:59.651Z,17.69
2023-06-10T04:37:02.711Z,17.99
2023-06-10T04:40:06.728Z,17.88
2023-06-10T04:43:09.795Z,17.97
2023-06-10T04:46:14.536Z,18.13
2023-06-10T04:49:17.001Z,18.22
2023-06-10T04:52:19.658Z,18.25
2023-06-10T04:55:22.800Z,18.32
2023-06-10T04:58:25.428Z,18.29
2023-06-10T05:01:28.844Z,18.46
2023-06-10T05:04:31.486Z,18.47
2023-06-10T05:07:33.875Z,18.51
2023-06-10T05:10:36.391Z,18.68
2023-06-10T05:13:38.807Z,18.61
2023-06-10T05:16:41.285Z,18.69
2023-06-10T05:19:44.543Z,18.72
2023-06-10T05:22:47.642Z,18.80
2023-06-10T05:25:50.210Z,18.83
2023-06-10T05:28:52.631Z,18.91
2023-06-10T05:31:57.732Z,19.24
2023-06-10T05:35:01.293Z,19.29
2023-06-10T05:38:04.320Z,19.35
2023-06-10T05:41:06.871Z,19.42
2023-06-10T05:44:10.409Z,19.64
2023-06-10T05:47:13.766Z,19.49
2023-06-10T05:50:16.472Z,19.62
2023-06-10T05:53:18.948Z,19.71
2023-06-10T05:56:23.462Z,19.69
2023-06-10T05:59:25.986Z,19.98
2023-06-10T06:02:28.578Z,20.33
2023-06-10T06:05:35.938Z,20.26
2023-06-10T06:08:38.377Z,20.21
2023-06-10T06:11:42.590Z,20.25
2023-06-10T06:14:45.927Z,20.47
2023-06-10T06:17:48.459Z,20.44
2023-06-10T06:20:51.253Z,20.32
2023-06-10T06:23:53.829Z,20.45
2023-06-10T06:26:56.318Z,20.58
2023-06-10T06:29:58.926Z,20.65
2023-06-10T06:33:02.233Z,20.41
2023-06-10T06:36:04.863Z,20.47
2023-06-10T06:39:07.286Z,20.86
2023-06-10T06:42:10.003Z,20.98
2023-06-10T06:45:37.910Z,21.39
2023-06-10T06:48:40.420Z,21.53
2023-06-10T06:51:42.838Z,22.01
2023-06-10T06:54:45.299Z,22.36
2023-06-10T06:57:48.875Z,22.56
2023-06-10T07:00:51.555Z,23.02
2023-06-10T07:03:54.197Z,22.77
2023-06-10T07:06:56.663Z,22.81
2023-06-10T07:09:59.125Z,22.87
2023-06-10T07:13:01.685Z,22.86
2023-06-10T07:16:04.470Z,22.77
2023-06-10T07:19:06.999Z,22.80
2023-06-10T07:22:09.904Z,22.86
2023-06-10T07:25:12.599Z,22.81
2023-06-10T07:28:15.197Z,22.76
2023-06-10T07:31:17.673Z,22.74
2023-06-10T07:34:20.328Z,22.87
2023-06-10T07:37:22.715Z,23.15
2023-06-10T07:40:25.672Z,23.23
2023-06-10T07:43:28.146Z,23.29
2023-06-10T07:46:30.703Z,23.59
2023-06-10T07:49:33.140Z,23.60
2023-06-10T07:52:35.651Z,23.75
2023-06-10T07:55:38.155Z,24.28
2023-06-10T07:58:40.563Z,24.40
2023-06-10T08:01:43.933Z,24.74
2023-06-10T08:04:46.352Z,24.48
2023-06-10T08:07:48.880Z,25.05
2023-06-10T08:10:51.374Z,25.82
2023-06-10T08:13:53.792Z,26.45
2023-06-10T08:16:56.326Z,26.73
2023-06-10T08:19:58.907Z,27.53
2023-06-10T08:23:01.290Z,27.47
2023-06-10T08:26:03.708Z,27.35
2023-06-10T08:29:06.194Z,28.20
2023-06-10T08:32:08.822Z,28.98
2023-06-10T08:35:11.404Z,29.62
2023-06-10T08:38:14.077Z,29.73
2023-06-10T08:41:18.753Z,29.80
2023-06-10T08:44:29.404Z,29.43
2023-06-10T08:47:36.761Z,28.69
2023-06-10T08:50:40.689Z,28.66
2023-06-10T08:54:03.954Z,28.42
2023-06-10T08:57:09.356Z,29.66
2023-06-10T09:00:13.322Z,28.00
2023-06-10T09:03:16.243Z,26.78
2023-06-10T09:06:19.549Z,25.65
2023-06-10T09:09:23.723Z,25.15
2023-06-10T09:12:26.362Z,24.87
2023-06-10T09:15:29.012Z,24.55
2023-06-10T09:18:32.018Z,24.17
2023-06-10T09:21:34.823Z,24.70
2023-06-10T09:24:37.418Z,25.00
2023-06-10T09:27:51.270Z,25.64
2023-06-10T09:31:04.977Z,25.48
2023-06-10T09:34:12.746Z,27.27
2023-06-10T09:37:21.972Z,26.20
2023-06-10T09:40:24.680Z,24.70
2023-06-10T09:43:47.480Z,25.60
2023-06-10T09:46:51.851Z,26.50
2023-06-10T09:49:54.762Z,27.08
2023-06-10T09:52:57.271Z,28.36
2023-06-10T09:55:59.688Z,30.71
2023-06-10T09:59:02.976Z,32.09
2023-06-10T10:02:06.417Z,33.14
2023-06-10T10:05:10.945Z,32.76
2023-06-10T10:08:13.602Z,32.15
2023-06-10T10:11:18.308Z,31.64
2023-06-10T10:14:22.081Z,29.83
2023-06-10T10:17:26.229Z,31.52
2023-06-10T10:20:32.376Z,31.78
2023-06-10T10:23:49.816Z,29.29
2023-06-10T10:26:56.851Z,30.17
2023-06-10T10:30:00.837Z,28.51
2023-06-10T10:33:11.155Z,30.24
2023-06-10T10:36:14.955Z,32.32
2023-06-10T10:39:18.304Z,33.66
2023-06-10T10:42:21.310Z,34.31
2023-06-10T10:45:24.078Z,33.84
2023-06-10T10:48:30.732Z,34.67
2023-06-10T10:51:35.499Z,34.32
2023-06-10T10:54:40.618Z,35.14
2023-06-10T10:57:43.092Z,35.19
2023-06-10T11:00:46.408Z,35.86
2023-06-10T11:03:50.369Z,35.65
2023-06-10T11:07:06.694Z,34.86
2023-06-10T11:10:13.647Z,32.13
2023-06-10T11:13:17.027Z,30.38
2023-06-10T11:16:20.971Z,28.90
2023-06-10T11:19:36.934Z,28.16
2023-06-10T11:22:59.916Z,28.72
2023-06-10T11:26:28.276Z,29.38
2023-06-10T11:29:30.833Z,28.58
2023-06-10T11:32:35.427Z,28.60
2023-06-10T11:35:38.026Z,29.43
2023-06-10T11:38:42.049Z,31.12
2023-06-10T11:41:44.494Z,31.00
2023-06-10T11:44:54.427Z,31.44
2023-06-10T11:48:00.820Z,30.20
2023-06-10T11:51:12.212Z,29.86
2023-06-10T11:54:14.630Z,28.07
2023-06-10T11:57:17.088Z,27.04
2023-06-10T12:00:19.927Z,26.38
2023-06-10T12:03:23.782Z,25.84
2023-06-10T12:06:26.493Z,26.11
2023-06-10T12:09:30.817Z,26.61
2023-06-10T12:12:36.095Z,27.62
2023-06-10T12:15:38.704Z,27.53
2023-06-10T12:18:41.280Z,27.24
2023-06-10T12:21:45.719Z,26.76
2023-06-10T12:25:02.233Z,26.08
2023-06-10T12:28:05.993Z,25.72
2023-06-10T12:31:09.131Z,25.38
2023-06-10T12:34:11.674Z,25.26
2023-06-10T12:37:14.780Z,25.02
2023-06-10T12:40:17.194Z,24.82
2023-06-10T12:43:24.104Z,24.79
2023-06-10T12:46:26.716Z,24.69
2023-06-10T12:49:29.214Z,24.79
2023-06-10T12:52:31.786Z,24.95
2023-06-10T12:55:34.689Z,25.52
2023-06-10T12:58:37.118Z,25.91
2023-06-10T13:01:40.214Z,26.31
2023-06-10T13:04:44.446Z,26.65
2023-06-10T13:07:47.517Z,26.87
2023-06-10T13:10:50.121Z,26.66
2023-06-10T13:13:52.763Z,27.12
2023-06-10T13:16:56.026Z,27.44
2023-06-10T13:19:58.546Z,27.62
2023-06-10T13:23:00.908Z,27.94
2023-06-10T13:26:04.329Z,28.40
2023-06-10T13:29:06.841Z,28.47
2023-06-10T13:32:09.627Z,27.95
2023-06-10T13:35:12.163Z,27.96
2023-06-10T13:38:14.899Z,28.06
2023-06-10T13:41:17.588Z,28.01
2023-06-10T13:44:19.962Z,28.31
2023-06-10T13:47:22.944Z,28.28
2023-06-10T13:50:26.188Z,28.33
2023-06-10T13:53:28.599Z,27.81
2023-06-10T13:56:31.564Z,28.08
2023-06-10T13:59:33.974Z,28.39
2023-06-10T14:02:36.490Z,28.51
2023-06-10T14:05:39.036Z,28.42
2023-06-10T14:08:42.077Z,28.77
2023-06-10T14:11:44.895Z,28.03
2023-06-10T14:14:47.247Z,27.21
2023-06-10T14:17:49.650Z,26.41
2023-06-10T14:20:52.169Z,26.11
2023-06-10T14:23:54.580Z,25.75
2023-06-10T14:26:59.428Z,25.90
2023-06-10T14:30:02.049Z,25.78
2023-06-10T14:33:04.472Z,26.26
2023-06-10T14:36:07.042Z,26.95
2023-06-10T14:39:09.542Z,27.48
2023-06-10T14:42:12.140Z,27.61
2023-06-10T14:45:16.069Z,27.10
2023-06-10T14:48:18.443Z,26.43
2023-06-10T14:51:22.086Z,26.12
2023-06-10T14:54:24.642Z,25.65
2023-06-10T14:57:27.045Z,24.95
2023-06-10T15:00:29.419Z,25.01
2023-06-10T15:03:31.845Z,25.06
2023-06-10T15:06:34.199Z,25.01
2023-06-10T15:09:36.555Z,24.92
2023-06-10T15:12:39.160Z,24.70
2023-06-10T15:15:41.542Z,24.57
2023-06-10T15:18:43.965Z,24.53
2023-06-10T15:21:46.419Z,24.48
2023-06-10T15:24:49.201Z,24.44
2023-06-10T15:27:52.539Z,24.65
2023-06-10T15:30:55.000Z,24.64
2023-06-10T15:33:57.366Z,24.36
2023-06-10T15:36:59.804Z,24.15
2023-06-10T15:40:02.235Z,23.96
2023-06-10T15:43:04.729Z,23.82
2023-06-10T15:46:07.153Z,23.83
2023-06-10T15:49:09.728Z,23.75
2023-06-10T15:52:12.851Z,23.66
2023-06-10T15:55:15.545Z,23.69
2023-06-10T15:58:17.938Z,23.73
2023-06-10T16:01:20.574Z,23.69
2023-06-10T16:04:23.099Z,23.66
2023-06-10T16:07:25.694Z,23.67
2023-06-10T16:10:28.073Z,23.55
2023-06-10T16:13:30.571Z,23.44
2023-06-10T16:16:33.118Z,23.35
2023-06-10T16:19:37.138Z,23.22
2023-06-10T16:22:41.671Z,23.31
2023-06-10T16:25:46.698Z,23.11
2023-06-10T16:28:49.804Z,22.98
2023-06-10T16:31:52.419Z,23.02
2023-06-10T16:34:54.920Z,23.13
2023-06-10T16:37:58.181Z,23.20
2023-06-10T16:41:01.937Z,23.17
2023-06-10T16:44:04.622Z,23.39
2023-06-10T16:47:07.483Z,23.41
2023-06-10T16:50:10.341Z,23.38
2023-06-10T16:53:12.922Z,23.28
2023-06-10T16:56:15.431Z,23.17
2023-06-10T16:59:17.974Z,23.18
2023-06-10T17:02:21.004Z,23.06
2023-06-10T17:05:23.536Z,22.91
2023-06-10T17:08:26.012Z,22.83
2023-06-10T17:11:28.376Z,22.58
2023-06-10T17:14:31.257Z,22.62
2023-06-10T17:17:35.002Z,22.40
2023-06-10T17:20:37.541Z,22.38
2023-06-10T17:23:39.956Z,22.21
2023-06-10T17:26:42.340Z,22.22
2023-06-10T17:29:44.761Z,21.85
2023-06-10T17:32:47.187Z,21.87
2023-06-10T17:35:50.182Z,21.75
2023-06-10T17:38:52.579Z,21.65
2023-06-10T17:41:55.062Z,21.51
2023-06-10T17:44:57.486Z,21.29
2023-06-10T17:47:59.909Z,21.33
2023-06-10T17:51:02.357Z,21.20
2023-06-10T17:54:07.714Z,20.95
2023-06-10T17:57:10.173Z,20.98
2023-06-10T18:00:13.242Z,20.82
2023-06-10T18:03:27.100Z,20.90
2023-06-10T18:06:29.870Z,20.76
2023-06-10T18:09:32.387Z,20.84
2023-06-10T18:12:34.771Z,20.79
2023-06-10T18:15:37.940Z,20.99
2023-06-10T18:18:41.180Z,20.91
2023-06-10T18:21:43.628Z,20.77
2023-06-10T18:24:46.029Z,20.82
2023-06-10T18:27:48.514Z,20.54
2023-06-10T18:30:52.461Z,20.60
2023-06-10T18:33:54.932Z,20.46
2023-06-10T18:36:57.388Z,20.85
2023-06-10T18:39:59.774Z,20.62
2023-06-10T18:43:02.177Z,20.56
2023-06-10T18:46:04.869Z,20.45
2023-06-10T18:49:07.308Z,20.44
2023-06-10T18:52:09.765Z,20.36
2023-06-10T18:55:12.361Z,20.49
2023-06-10T18:58:14.882Z,20.40
2023-06-10T19:01:17.548Z,20.25
2023-06-10T19:04:19.994Z,20.34
2023-06-10T19:07:22.368Z,20.36
2023-06-10T19:10:24.892Z,20.14
2023-06-10T19:13:28.681Z,20.17
2023-06-10T19:16:31.588Z,20.11
2023-06-10T19:19:34.047Z,20.18
2023-06-10T19:22:36.676Z,20.07
2023-06-10T19:25:39.149Z,19.98
2023-06-10T19:28:41.501Z,19.92
2023-06-10T19:31:43.966Z,19.82
2023-06-10T19:34:46.468Z,20.07
2023-06-10T19:37:48.891Z,20.09
2023-06-10T19:40:51.311Z,19.96
2023-06-10T19:43:53.732Z,20.04
2023-06-10T19:46:56.202Z,19.88
2023-06-10T19:49:58.682Z,19.83
2023-06-10T19:53:01.434Z,19.61
2023-06-10T19:56:03.863Z,19.77
2023-06-10T19:59:06.749Z,19.63
2023-06-10T20:02:09.229Z,19.77
2023-06-10T20:05:11.888Z,19.75
2023-06-10T20:08:14.705Z,19.60
2023-06-10T20:11:17.214Z,19.42
2023-06-10T20:14:19.670Z,19.64
2023-06-10T20:17:22.107Z,19.56
2023-06-10T20:20:25.288Z,19.42
2023-06-10T20:23:27.698Z,19.47
2023-06-10T20:26:30.106Z,19.18
2023-06-10T20:29:32.531Z,19.34
2023-06-10T20:32:35.083Z,19.06
2023-06-10T20:35:37.525Z,19.12
2023-06-10T20:38:39.882Z,19.15
2023-06-10T20:41:42.378Z,19.19
2023-06-10T20:44:44.898Z,19.07
2023-06-10T20:47:47.884Z,18.90
2023-06-10T20:50:50.530Z,19.15
2023-06-10T20:53:52.998Z,19.16
2023-06-10T20:56:55.657Z,19.01
2023-06-10T20:59:58.116Z,19.01
2023-06-10T21:03:00.835Z,19.07
2023-06-10T21:06:03.534Z,18.89
2023-06-10T21:09:06.084Z,18.83
2023-06-10T21:12:08.926Z,18.93
2023-06-10T21:15:11.753Z,18.89
2023-06-10T21:18:14.347Z,18.76
2023-06-10T21:21:16.780Z,18.73
2023-06-10T21:24:19.392Z,18.88
2023-06-10T21:27:23.532Z,18.82
2023-06-10T21:30:26.916Z,18.59
2023-06-10T21:33:29.311Z,18.68
2023-06-10T21:36:31.696Z,18.75
2023-06-10T21:39:34.104Z,18.67
2023-06-10T21:42:36.509Z,18.67
2023-06-10T21:45:38.962Z,18.52
2023-06-10T21:48:41.377Z,18.47
2023-06-10T21:51:45.990Z,18.48
2023-06-10T21:54:48.373Z,18.57
2023-06-10T21:57:50.846Z,18.37
2023-06-10T22:00:53.350Z,18.53
2023-06-10T22:03:55.872Z,18.35
2023-06-10T22:06:59.043Z,18.42
2023-06-10T22:10:03.826Z,18.25
2023-06-10T22:13:09.121Z,18.26
2023-06-10T22:16:12.028Z,18.33
2023-06-10T22:19:14.404Z,18.29
2023-06-10T22:22:16.831Z,18.29
2023-06-10T22:25:19.230Z,18.21
2023-06-10T22:28:21.696Z,18.22
2023-06-10T22:31:24.122Z,18.24
2023-06-10T22:34:26.778Z,18.09
2023-06-10T22:37:29.178Z,17.95
2023-06-10T22:40:31.642Z,17.97
2023-06-10T22:43:34.178Z,18.00
2023-06-10T22:46:37.179Z,18.00
2023-06-10T22:49:39.587Z,17.90
2023-06-10T22:52:42.208Z,17.95
2023-06-10T22:55:45.054Z,17.79
2023-06-10T22:58:47.591Z,17.89
2023-06-10T23:01:50.063Z,17.83
2023-06-10T23:04:53.049Z,17.67
2023-06-10T23:07:55.436Z,17.70
2023-06-10T23:10:57.889Z,17.74
2023-06-10T23:14:00.266Z,17.73
2023-06-10T23:17:02.631Z,17.69
2023-06-10T23:20:07.393Z,17.73
2023-06-10T23:23:10.573Z,17.57
2023-06-10T23:26:12.971Z,17.52
2023-06-10T23:29:15.426Z,17.73
2023-06-10T23:32:17.885Z,17.64
2023-06-10T23:35:20.616Z,17.52
2023-06-10T23:38:23.060Z,17.65
2023-06-10T23:41:26.066Z,17.49
2023-06-10T23:44:28.451Z,17.62
2023-06-10T23:47:31.059Z,17.63
2023-06-10T23:50:37.095Z,17.51
2023-06-10T23:53:39.516Z,17.63
2023-06-10T23:56:42.025Z,17.64
2023-06-10T23:59:44.438Z,17.56
